Nearby METAR Reports

 

KSJC - San Jose, California, USA
Distance from station: NE 9mi, 14km
Updated: Thu, 21-Oct-2021 1:53am CDT
Mostly cloudy
Mostly cloudy
 Wind from SSE
Wind: SSE 7 mph , 11 km/h
Temperature: 64°F , 18°C
Dew Point: 57°F , 14°C
Humidity: 78%
Barometer: 30.08 inHg , 1018.6 hPa
Clouds: Mostly cloudy
Visibility: 10 miles , 16 km
Cloud details: Few Clouds 1200 ft
Partly cloudy 3500 ft
Mostly cloudy 6000 ft
2021/10/21 06:53 KSJC 210653Z 15006KT 10SM FEW012 SCT035 BKN060 18/14 A3008 RMK AO2 SLP186 LAST T01830144
KNUQ - Moffett Nas/Mtn, California, USA
Distance from station: N 9mi, 14km
Updated: Thu, 21-Oct-2021 1:55am CDT
Overcast
Overcast
 Wind from SE
Wind: SE 12 mph , 19 km/h
Temperature: 64°F , 18°C
Dew Point: 59°F , 15°C
Humidity: 83%
Barometer: 30.07 inHg , 1018.3 hPa
Clouds: Overcast
Visibility: 10 miles , 16 km
Cloud details: Overcast 6500 ft
2021/10/21 06:55 KNUQ 210655Z AUTO 14010KT 10SM OVC065 18/15 A3007 RMK AO2
 
KPAO - Palo Alto, California, USA
Distance from station: NNW 14mi, 23km
Updated: Wed, 20-Oct-2021 10:47pm CDT
NOT Current
Nearby showers, Overcast
Nearby showers, Overcast
 Wind from SE
Wind: SE 12 mph , 19 km/h
Temperature: 63°F , 17°C
Dew Point: 57°F , 14°C
Humidity: 83%
Barometer: 30.06 inHg , 1017.9 hPa
Summary: Nearby Showers
Clouds: Overcast
Visibility: 6 miles , 10 km
Cloud details: Overcast 2100 ft
2021/10/21 03:47 KPAO 210347Z 13010KT 6SM VCSH OVC021 17/14 A3006 RMK LAST
KRHV - San Jose/Reid, California, USA
Distance from station: ENE 12mi, 19km
Updated: Wed, 20-Oct-2021 11:55pm CDT
NOT Current
Mostly cloudy
Mostly cloudy
 Wind from SE
Wind: SE 9 mph , 15 km/h
Temperature: 64°F , 18°C
Dew Point: 57°F , 14°C
Humidity: 78%
Barometer: 30.08 inHg , 1018.6 hPa
Clouds: Mostly cloudy
Visibility: 10 miles , 16 km
Cloud details: Partly cloudy 3000 ft
Mostly cloudy 5500 ft
2021/10/21 04:55 KRHV 210455Z 14008KT 10SM SCT030 BKN055 18/14 A3008 RMK LAST
 
KOAK - Oakland, California, USA
Distance from station: NNW 31mi, 50km
Updated: Thu, 21-Oct-2021 1:53am CDT
Overcast
Overcast
 Wind from SE
Wind: SE 9 mph , 15 km/h
Temperature: 63°F , 17°C
Dew Point: 61°F , 16°C
Humidity: 94%
Barometer: 30.08 inHg , 1018.6 hPa
Clouds: Overcast
Visibility: 9 miles , 14 km
Cloud details: Few Clouds 600 ft
Partly cloudy 2800 ft
Overcast 3500 ft
2021/10/21 06:53 KOAK 210653Z 14008KT 9SM FEW006 SCT028 OVC035 17/16 A3008 RMK AO2 RAB26E52 SLP185 P0000 T01720156 $
KSQL - San Carlos Airpo, California, USA
Distance from station: NW 21mi, 34km
Updated: Thu, 21-Oct-2021 2:15am CDT
Overcast
Overcast
 Wind from SSE
Wind: SSE 3 mph , 6 km/h
Temperature: 63°F , 17°C
Dew Point: 63°F , 17°C
Humidity: 100%
Barometer: 30.07 inHg , 1018.3 hPa
Clouds: Overcast
Visibility: 10 miles , 16 km
Cloud details: Few Clouds 1300 ft
Partly cloudy 6500 ft
Overcast 7000 ft
2021/10/21 07:15 KSQL 210715Z AUTO 15003KT 10SM FEW013 SCT065 OVC070 17/17 A3007 RMK AO2
 
KSFO - San Francisco, California, USA
Distance from station: NW 30mi, 49km
Updated: Thu, 21-Oct-2021 1:56am CDT
Overcast
Overcast
 Wind from SSE
Wind: SSE 7 mph , 11 km/h
Temperature: 63°F , 17°C
Dew Point: 61°F , 16°C
Humidity: 94%
Barometer: 30.06 inHg , 1017.9 hPa
Clouds: Overcast
Visibility: 7 miles , 11 km
Cloud details: Few Clouds 800 ft
Mostly cloudy 2200 ft
Overcast 3500 ft
2021/10/21 06:56 KSFO 210656Z 15006KT 7SM FEW008 BKN022 OVC035 17/16 A3006 RMK AO2 RAE46 SLP179 P0002 T01670156
KE16 - San Martin, California, USA
Distance from station: ESE 27mi, 43km
Updated: Thu, 21-Oct-2021 1:55am CDT
Overcast
Overcast
 Wind from SSE
Wind: SSE 5 mph , 7 km/h
Temperature: 59°F , 15°C
Dew Point: 59°F , 15°C
Humidity: 100%
Barometer: 30.13 inHg , 1020.3 hPa
Clouds: Overcast
Visibility: 10 miles , 16 km
Cloud details: Overcast 4100 ft
2021/10/21 06:55 KE16 210655Z AUTO 16004KT 10SM OVC041 15/15 A3013 RMK AO2 PWINO PNO
 
KWVI - Watsonville, California, USA
Distance from station: SSE 27mi, 44km
Updated: Thu, 21-Oct-2021 1:53am CDT
Overcast
Overcast
 Wind from calm
Wind: Calm
Temperature: 59°F , 15°C
Dew Point: 59°F , 15°C
Humidity: 100%
Barometer: 30.11 inHg , 1019.6 hPa
Clouds: Overcast
Visibility: 10 miles , 16 km
Cloud details: Mostly cloudy 4300 ft
Overcast 4900 ft
2021/10/21 06:53 KWVI 210653Z AUTO 00000KT 10SM BKN043 OVC049 15/15 A3011 RMK AO2 SLP196 T01500150
KHAF - Half Moon Bay, California, USA
Distance from station: WNW 31mi, 50km
Updated: Thu, 21-Oct-2021 2:15am CDT
Mist, Overcast
Mist, Overcast
 Wind from SSE
Wind: SSE 10 mph , 17 km/h
Temperature: 61°F , 16°C
Dew Point: 61°F , 16°C
Humidity: 100%
Barometer: 30.07 inHg , 1018.3 hPa
Summary: Mist
Clouds: Overcast
Visibility: 1/2 mile , 0.8 km
Cloud details: Overcast 600 ft
2021/10/21 07:15 KHAF 210715Z AUTO 16009KT 1/2SM BR OVC006 16/16 A3007 RMK AO2
 
KHWD - Hayward, California, USA
Distance from station: N 28mi, 44km
Updated: Thu, 21-Oct-2021 1:54am CDT
Light rain, Mist, Overcast
Light rain, Mist, Overcast
 Wind from SE
Wind: SE 10 mph , 17 km/h
Temperature: 63°F , 17°C
Dew Point: 61°F , 16°C
Humidity: 94%
Barometer: 30.07 inHg , 1018.3 hPa
Summary: Light rain, Mist
Clouds: Overcast
Visibility: 6 miles , 10 km
Cloud details: Overcast 5000 ft
2021/10/21 06:54 KHWD 210654Z 14009KT 6SM -RA BR OVC050 17/16 A3007 RMK AO2 SLP190 P0001 T01670156
KLVK - Livermore, California, USA
Distance from station: NNE 31mi, 51km
Updated: Thu, 21-Oct-2021 1:53am CDT
Light rain, Overcast
Light rain, Overcast
 Wind from calm
Wind: Calm
Temperature: 61°F , 16°C
Dew Point: 57°F , 14°C
Humidity: 88%
Barometer: 30.09 inHg , 1019 hPa
Summary: Light rain
Clouds: Overcast
Visibility: 10 miles , 16 km
Cloud details: Mostly cloudy 3400 ft
Overcast 4500 ft
2021/10/21 06:53 KLVK 210653Z AUTO 00000KT 10SM -RA BKN034 OVC045 16/14 A3009 RMK AO2 RAB24 SLP186 P0000 T01560144